createdAt,value
2022-10-19T00:02:08.734Z,101631.67
2022-10-19T00:04:36.832Z,101631.86
2022-10-19T00:07:04.479Z,101632.46
2022-10-19T00:09:32.084Z,101636.86
2022-10-19T00:11:59.769Z,101639.04
2022-10-19T00:14:27.377Z,101643.01
2022-10-19T00:16:55.751Z,101646.23
2022-10-19T00:19:24.928Z,101643.98
2022-10-19T00:21:52.645Z,101643.27
2022-10-19T00:24:21.022Z,101651.20
2022-10-19T00:26:49.048Z,101652.44
2022-10-19T00:29:17.550Z,101648.73
2022-10-19T00:31:45.384Z,101652.13
2022-10-19T00:34:13.032Z,101651.94
2022-10-19T00:36:41.863Z,101653.44
2022-10-19T00:39:13.398Z,101652.70
2022-10-19T00:41:41.557Z,101645.00
2022-10-19T00:44:11.923Z,101641.02
2022-10-19T00:46:42.420Z,101645.08
2022-10-19T00:49:17.916Z,101644.17
2022-10-19T00:51:48.399Z,101644.45
2022-10-19T00:54:17.294Z,101643.09
2022-10-19T00:56:46.086Z,101642.04
2022-10-19T00:59:15.584Z,101640.29
2022-10-19T01:01:44.698Z,101642.21
2022-10-19T01:04:12.646Z,101644.65
2022-10-19T01:06:40.801Z,101647.02
2022-10-19T01:09:08.874Z,101646.54
2022-10-19T01:11:56.762Z,101648.48
2022-10-19T01:14:33.677Z,101642.98
2022-10-19T01:17:16.568Z,101642.33
2022-10-19T01:19:50.222Z,101637.09
2022-10-19T01:22:20.944Z,101628.92
2022-10-19T01:24:57.978Z,101631.64
2022-10-19T01:27:28.708Z,101627.37
2022-10-19T01:30:12.559Z,101626.15
2022-10-19T01:32:59.341Z,101621.24
2022-10-19T01:35:50.300Z,101624.09
2022-10-19T01:38:24.118Z,101626.45
2022-10-19T01:40:54.921Z,101625.83
2022-10-19T01:43:25.612Z,101629.85
2022-10-19T01:46:13.589Z,101628.02
2022-10-19T01:48:44.796Z,101623.45
2022-10-19T01:51:14.989Z,101621.80
2022-10-19T01:53:46.326Z,101625.42
2022-10-19T01:56:14.870Z,101621.20
2022-10-19T01:58:44.254Z,101616.41
2022-10-19T02:01:13.511Z,101617.00
2022-10-19T02:03:42.382Z,101614.72
2022-10-19T02:06:11.649Z,101608.74
2022-10-19T02:08:47.201Z,101606.78
2022-10-19T02:11:16.349Z,101606.27
2022-10-19T02:13:45.502Z,101606.67
2022-10-19T02:16:16.424Z,101606.24
2022-10-19T02:18:49.219Z,101613.08
2022-10-19T02:21:17.130Z,101608.58
2022-10-19T02:23:44.798Z,101610.64
2022-10-19T02:26:12.827Z,101615.84
2022-10-19T02:28:40.658Z,101612.95
2022-10-19T02:31:08.906Z,101612.62
2022-10-19T02:33:36.836Z,101603.70
2022-10-19T02:36:04.674Z,101607.63
2022-10-19T02:38:32.348Z,101606.48
2022-10-19T02:41:03.037Z,101608.30
2022-10-19T02:43:33.732Z,101610.08
2022-10-19T02:46:04.466Z,101605.79
2022-10-19T02:48:33.785Z,101607.42
2022-10-19T02:51:01.423Z,101605.62
2022-10-19T02:53:29.278Z,101603.80
2022-10-19T02:55:56.988Z,101607.39
2022-10-19T02:58:24.630Z,101601.93
2022-10-19T03:00:52.295Z,101600.16
2022-10-19T03:03:19.992Z,101602.73
2022-10-19T03:05:47.638Z,101605.45
2022-10-19T03:08:15.276Z,101601.45
2022-10-19T03:10:42.963Z,101601.77
2022-10-19T03:13:10.609Z,101603.13
2022-10-19T03:15:38.286Z,101603.33
2022-10-19T03:18:05.916Z,101600.92
2022-10-19T03:20:33.706Z,101601.44
2022-10-19T03:23:01.354Z,101602.01
2022-10-19T03:25:29.076Z,101607.53
2022-10-19T03:27:56.707Z,101603.80
2022-10-19T03:30:24.400Z,101599.30
2022-10-19T03:32:52.049Z,101602.92
2022-10-19T03:35:19.669Z,101601.52
2022-10-19T03:37:47.395Z,101600.04
2022-10-19T03:40:15.088Z,101594.05
2022-10-19T03:42:42.663Z,101593.38
2022-10-19T03:45:10.424Z,101594.08
2022-10-19T03:47:38.068Z,101589.31
2022-10-19T03:50:06.177Z,101595.02
2022-10-19T03:52:33.817Z,101593.59
2022-10-19T03:55:01.478Z,101598.90
2022-10-19T03:57:29.153Z,101594.48
2022-10-19T03:59:57.339Z,101596.52
2022-10-19T04:02:24.979Z,101595.45
2022-10-19T04:04:52.617Z,101595.29
2022-10-19T04:07:20.200Z,101599.97
2022-10-19T04:09:47.849Z,101600.65
2022-10-19T04:12:15.492Z,101602.73
2022-10-19T04:14:56.845Z,101601.73
2022-10-19T04:17:25.993Z,101599.69
2022-10-19T04:19:53.709Z,101602.50
2022-10-19T04:22:21.363Z,101604.55
2022-10-19T04:24:49.045Z,101608.50
2022-10-19T04:27:16.854Z,101608.05
2022-10-19T04:29:44.481Z,101606.55
2022-10-19T04:32:12.147Z,101603.95
2022-10-19T04:34:40.201Z,101607.60
2022-10-19T04:37:08.068Z,101609.88
2022-10-19T04:39:39.597Z,101610.93
2022-10-19T04:42:07.237Z,101610.17
2022-10-19T04:44:34.835Z,101615.73
2022-10-19T04:47:02.562Z,101615.59
2022-10-19T04:49:30.181Z,101615.11
2022-10-19T04:51:57.803Z,101614.05
2022-10-19T04:54:25.430Z,101609.98
2022-10-19T04:56:54.062Z,101610.98
2022-10-19T04:59:21.682Z,101615.23
2022-10-19T05:01:49.328Z,101612.17
2022-10-19T05:04:17.025Z,101606.08
2022-10-19T05:06:44.688Z,101610.09
2022-10-19T05:09:12.309Z,101609.74
2022-10-19T05:11:39.952Z,101614.66
2022-10-19T05:14:07.620Z,101613.70
2022-10-19T05:16:35.262Z,101616.29
2022-10-19T05:19:03.152Z,101621.52
2022-10-19T05:21:30.824Z,101623.33
2022-10-19T05:23:58.473Z,101621.64
2022-10-19T05:26:27.120Z,101620.83
2022-10-19T05:28:56.894Z,101624.42
2022-10-19T05:31:26.416Z,101625.36
2022-10-19T05:33:54.242Z,101626.71
2022-10-19T05:36:25.668Z,101628.74
2022-10-19T05:38:54.409Z,101627.61
2022-10-19T05:41:22.893Z,101630.30
2022-10-19T05:43:54.826Z,101628.70
2022-10-19T05:46:22.566Z,101628.38
2022-10-19T05:48:50.257Z,101632.41
2022-10-19T05:51:19.246Z,101638.03
2022-10-19T05:53:46.950Z,101638.39
2022-10-19T05:56:16.636Z,101636.77
2022-10-19T05:58:44.641Z,101635.50
2022-10-19T06:01:13.117Z,101640.58
2022-10-19T06:03:40.736Z,101646.73
2022-10-19T06:06:09.064Z,101649.17
2022-10-19T06:08:37.558Z,101649.48
2022-10-19T06:11:07.279Z,101650.52
2022-10-19T06:13:35.416Z,101650.73
2022-10-19T06:16:03.530Z,101655.04
2022-10-19T06:18:31.394Z,101657.71
2022-10-19T06:21:06.874Z,101664.05
2022-10-19T06:23:35.758Z,101666.26
2022-10-19T06:26:04.828Z,101669.53
2022-10-19T06:28:32.770Z,101673.38
2022-10-19T06:31:00.433Z,101675.73
2022-10-19T06:33:28.378Z,101678.30
2022-10-19T06:35:56.197Z,101680.27
2022-10-19T06:38:23.914Z,101683.38
2022-10-19T06:40:51.623Z,101680.10
2022-10-19T06:43:19.240Z,101682.88
2022-10-19T06:45:46.894Z,101678.66
2022-10-19T06:48:14.501Z,101687.45
2022-10-19T06:50:42.126Z,101689.99
2022-10-19T06:53:09.783Z,101689.30
2022-10-19T06:55:37.806Z,101693.71
2022-10-19T06:58:05.434Z,101697.86
2022-10-19T07:00:33.100Z,101693.09
2022-10-19T07:03:01.190Z,101694.83
2022-10-19T07:05:29.086Z,101701.19
2022-10-19T07:07:57.659Z,101702.21
2022-10-19T07:10:25.383Z,101706.11
2022-10-19T07:12:53.317Z,101702.42
2022-10-19T07:15:21.017Z,101708.04
2022-10-19T07:17:48.652Z,101706.44
2022-10-19T07:20:16.332Z,101707.73
2022-10-19T07:22:43.964Z,101710.80
2022-10-19T07:25:12.115Z,101716.96
2022-10-19T07:27:40.669Z,101719.12
2022-10-19T07:30:08.675Z,101717.42
2022-10-19T07:32:36.387Z,101714.77
2022-10-19T07:35:04.209Z,101713.58
2022-10-19T07:37:32.127Z,101720.62
2022-10-19T07:40:00.207Z,101723.02
2022-10-19T07:42:30.499Z,101718.44
2022-10-19T07:44:58.461Z,101718.58
2022-10-19T07:47:26.098Z,101720.52
2022-10-19T07:49:53.738Z,101720.94
2022-10-19T07:52:21.387Z,101723.20
2022-10-19T07:54:49.787Z,101728.10
2022-10-19T07:57:17.538Z,101732.27
2022-10-19T07:59:45.154Z,101727.85
2022-10-19T08:02:17.075Z,101729.44
2022-10-19T08:05:02.945Z,101732.04
2022-10-19T08:07:35.298Z,101732.42
2022-10-19T08:10:04.336Z,101730.26
2022-10-19T08:12:35.111Z,101732.98
2022-10-19T08:15:03.210Z,101731.65
2022-10-19T08:17:30.926Z,101741.54
2022-10-19T08:19:58.790Z,101739.27
2022-10-19T08:22:26.467Z,101743.17
2022-10-19T08:24:54.086Z,101740.69
2022-10-19T08:27:21.988Z,101737.95
2022-10-19T08:29:50.627Z,101733.85
2022-10-19T08:32:18.729Z,101734.34
2022-10-19T08:34:46.417Z,101739.83
2022-10-19T08:37:25.775Z,101739.50
2022-10-19T08:40:00.590Z,101740.40
2022-10-19T08:42:50.611Z,101739.70
2022-10-19T08:45:18.249Z,101742.77
2022-10-19T08:47:55.152Z,101743.84
2022-10-19T08:50:27.431Z,101742.79
2022-10-19T08:53:02.594Z,101740.55
2022-10-19T08:55:58.647Z,101740.13
2022-10-19T08:58:30.288Z,101732.35
2022-10-19T09:01:07.141Z,101731.70
2022-10-19T09:03:56.505Z,101727.40
2022-10-19T09:06:32.053Z,101726.78
2022-10-19T09:08:59.933Z,101720.24
2022-10-19T09:11:30.067Z,101725.08
2022-10-19T09:14:18.408Z,101737.23
2022-10-19T09:16:46.485Z,101740.23
2022-10-19T09:19:25.764Z,101748.33
2022-10-19T09:21:58.125Z,101750.20
2022-10-19T09:24:31.743Z,101756.09
2022-10-19T09:27:01.199Z,101760.67
2022-10-19T09:29:47.562Z,101761.09
2022-10-19T09:32:18.544Z,101761.91
2022-10-19T09:34:57.906Z,101771.45
2022-10-19T09:37:26.847Z,101770.08
2022-10-19T09:39:56.304Z,101771.89
2022-10-19T09:42:24.158Z,101775.33
2022-10-19T09:44:52.601Z,101778.41
2022-10-19T09:47:20.185Z,101780.30
2022-10-19T09:49:48.937Z,101781.32
2022-10-19T09:52:24.921Z,101783.90
2022-10-19T09:55:00.277Z,101781.42
2022-10-19T09:57:28.483Z,101786.46
2022-10-19T09:59:56.604Z,101794.08
2022-10-19T10:02:31.930Z,101790.55
2022-10-19T10:05:03.372Z,101793.61
2022-10-19T10:07:37.033Z,101791.34
2022-10-19T10:10:26.834Z,101795.79
2022-10-19T10:12:58.750Z,101794.20
2022-10-19T10:15:29.059Z,101790.70
2022-10-19T10:17:57.358Z,101791.13
2022-10-19T10:20:27.992Z,101795.23
2022-10-19T10:23:00.456Z,101798.45
2022-10-19T10:25:35.293Z,101797.80
2022-10-19T10:28:19.896Z,101793.89
2022-10-19T10:30:48.771Z,101785.95
2022-10-19T10:33:26.982Z,101786.60
2022-10-19T10:36:03.442Z,101787.20
2022-10-19T10:38:33.442Z,101788.89
2022-10-19T10:41:04.587Z,101792.64
2022-10-19T10:43:33.576Z,101788.67
2022-10-19T10:46:06.572Z,101786.91
2022-10-19T10:48:39.294Z,101785.93
2022-10-19T10:51:20.953Z,101787.52
2022-10-19T10:53:49.521Z,101788.86
2022-10-19T10:56:25.824Z,101788.27
2022-10-19T10:58:59.502Z,101788.15
2022-10-19T11:01:29.249Z,101794.92
2022-10-19T11:04:10.765Z,101793.66
2022-10-19T11:06:44.589Z,101795.19
2022-10-19T11:09:35.065Z,101801.36
2022-10-19T11:12:04.516Z,101797.42
2022-10-19T11:14:50.453Z,101808.70
2022-10-19T11:17:27.674Z,101819.35
2022-10-19T11:19:55.842Z,101829.80
2022-10-19T11:22:27.238Z,101834.87
2022-10-19T11:25:02.204Z,101840.40
2022-10-19T11:27:40.373Z,101843.13
2022-10-19T11:30:14.115Z,101840.67
2022-10-19T11:33:00.616Z,101838.94
2022-10-19T11:35:43.464Z,101834.35
2022-10-19T11:38:28.709Z,101836.13
2022-10-19T11:41:19.517Z,101838.48
2022-10-19T11:43:58.563Z,101830.10
2022-10-19T11:46:34.305Z,101828.06
2022-10-19T11:49:08.286Z,101828.07
2022-10-19T11:51:40.767Z,101828.73
2022-10-19T11:54:23.679Z,101825.29
2022-10-19T11:57:11.968Z,101820.05
2022-10-19T11:59:49.562Z,101815.88
2022-10-19T12:02:36.692Z,101811.27
2022-10-19T12:05:10.382Z,101810.48
2022-10-19T12:07:43.833Z,101810.05
2022-10-19T12:10:17.386Z,101808.16
2022-10-19T12:12:49.644Z,101803.75
2022-10-19T12:15:35.732Z,101804.95
2022-10-19T12:18:07.334Z,101811.82
2022-10-19T12:20:55.237Z,101813.58
2022-10-19T12:23:33.165Z,101815.29
2022-10-19T12:26:03.041Z,101813.68
2022-10-19T12:28:32.194Z,101811.30
2022-10-19T12:31:01.560Z,101817.79
2022-10-19T12:33:35.912Z,101817.90
2022-10-19T12:36:03.751Z,101817.08
2022-10-19T12:38:34.549Z,101814.89
2022-10-19T12:41:26.127Z,101812.65
2022-10-19T12:44:00.657Z,101812.42
2022-10-19T12:46:28.254Z,101811.98
2022-10-19T12:49:14.984Z,101805.40
2022-10-19T12:51:46.546Z,101799.85
2022-10-19T12:54:14.323Z,101805.11
2022-10-19T12:56:53.665Z,101811.52
2022-10-19T12:59:35.327Z,101817.59
2022-10-19T13:02:05.342Z,101815.27
2022-10-19T13:04:35.913Z,101813.30
2022-10-19T13:07:05.589Z,101812.19
2022-10-19T13:09:39.099Z,101811.31
2022-10-19T13:12:19.598Z,101809.93
2022-10-19T13:14:57.657Z,101811.09
2022-10-19T13:17:35.002Z,101806.83
2022-10-19T13:20:25.496Z,101808.53
2022-10-19T13:23:05.314Z,101808.27
2022-10-19T13:25:39.836Z,101811.23
2022-10-19T13:28:07.526Z,101811.02
2022-10-19T13:30:42.306Z,101812.21
2022-10-19T13:33:25.403Z,101812.73
2022-10-19T13:36:11.686Z,101810.58
2022-10-19T13:38:40.625Z,101815.70
2022-10-19T13:41:11.031Z,101819.48
2022-10-19T13:43:57.714Z,101817.83
2022-10-19T13:46:28.514Z,101827.63
2022-10-19T13:49:05.544Z,101833.98
2022-10-19T13:51:36.269Z,101834.10
2022-10-19T13:54:16.198Z,101831.94
2022-10-19T13:57:04.319Z,101832.38
2022-10-19T13:59:50.741Z,101833.98
2022-10-19T14:02:46.258Z,101837.52
2022-10-19T14:05:32.614Z,101839.84
2022-10-19T14:08:00.292Z,101834.67
2022-10-19T14:10:33.150Z,101833.95
2022-10-19T14:13:14.188Z,101833.86
2022-10-19T14:15:50.208Z,101832.89
2022-10-19T14:18:25.908Z,101830.48
2022-10-19T14:20:57.932Z,101829.15
2022-10-19T14:23:30.192Z,101836.26
2022-10-19T14:26:03.522Z,101837.04
2022-10-19T14:28:32.041Z,101839.23
2022-10-19T14:30:59.775Z,101839.98
2022-10-19T14:33:29.813Z,101833.86
2022-10-19T14:35:57.422Z,101836.17
2022-10-19T14:38:25.362Z,101835.95
2022-10-19T14:40:53.202Z,101836.02
2022-10-19T14:43:25.544Z,101837.30
2022-10-19T14:46:08.417Z,101838.05
2022-10-19T14:48:37.411Z,101840.92
2022-10-19T14:51:09.753Z,101840.16
2022-10-19T14:53:43.012Z,101837.87
2022-10-19T14:56:10.597Z,101840.29
2022-10-19T14:58:47.137Z,101844.38
2022-10-19T15:01:16.279Z,101846.44
2022-10-19T15:03:45.048Z,101845.73
2022-10-19T15:06:21.597Z,101843.45
2022-10-19T15:11:33.091Z,101847.81
2022-10-19T15:14:03.475Z,101849.67
2022-10-19T15:16:32.666Z,101847.15
2022-10-19T15:19:07.331Z,101847.36
2022-10-19T15:21:35.001Z,101848.67
2022-10-19T15:24:07.405Z,101848.41
2022-10-19T15:26:35.727Z,101850.71
2022-10-19T15:29:12.849Z,101853.40
2022-10-19T15:31:40.472Z,101852.04
2022-10-19T15:34:20.528Z,101851.67
2022-10-19T15:36:55.940Z,101857.41
2022-10-19T15:39:37.818Z,101865.84
2022-10-19T15:42:26.877Z,101870.71
2022-10-19T15:44:54.613Z,101874.80
2022-10-19T15:47:23.412Z,101879.32
2022-10-19T15:49:52.521Z,101879.55
2022-10-19T15:52:21.946Z,101881.65
2022-10-19T15:54:53.890Z,101886.23
2022-10-19T15:57:24.518Z,101888.21
2022-10-19T15:59:52.229Z,101889.05
2022-10-19T16:02:19.834Z,101889.39
2022-10-19T16:04:47.599Z,101890.89
2022-10-19T16:07:17.828Z,101891.14
2022-10-19T16:09:45.526Z,101894.77
2022-10-19T16:12:13.177Z,101898.66
2022-10-19T16:14:41.151Z,101899.86
2022-10-19T16:17:10.218Z,101905.43
2022-10-19T16:19:37.881Z,101907.36
2022-10-19T16:22:05.853Z,101910.69
2022-10-19T16:24:33.550Z,101914.14
2022-10-19T16:27:01.248Z,101913.53
2022-10-19T16:29:29.172Z,101913.65
2022-10-19T16:31:57.104Z,101916.59
2022-10-19T16:34:24.734Z,101920.54
2022-10-19T16:36:52.495Z,101922.16
2022-10-19T16:39:20.139Z,101916.79
2022-10-19T16:41:47.787Z,101917.55
2022-10-19T16:44:16.105Z,101923.89
2022-10-19T16:46:43.745Z,101926.68
2022-10-19T16:49:11.360Z,101930.11
2022-10-19T16:51:40.394Z,101937.09
2022-10-19T16:54:10.270Z,101937.64
2022-10-19T16:56:42.692Z,101939.66
2022-10-19T16:59:11.008Z,101943.67
2022-10-19T17:01:38.987Z,101945.86
2022-10-19T17:04:07.311Z,101945.95
2022-10-19T17:06:35.441Z,101949.73
2022-10-19T17:11:51.525Z,101949.78
2022-10-19T17:14:19.257Z,101955.34
2022-10-19T17:16:46.961Z,101958.93
2022-10-19T17:19:14.690Z,101960.45
2022-10-19T17:21:42.707Z,101966.42
2022-10-19T17:24:18.662Z,101968.47
2022-10-19T17:26:50.547Z,101972.25
2022-10-19T17:29:18.697Z,101977.86
2022-10-19T17:31:46.809Z,101979.24
2022-10-19T17:34:15.227Z,101981.05
2022-10-19T17:36:46.696Z,101981.19
2022-10-19T17:39:17.988Z,101987.07
2022-10-19T17:41:46.459Z,101987.71
2022-10-19T17:44:14.741Z,101990.27
2022-10-19T17:46:42.621Z,101990.98
2022-10-19T17:49:10.393Z,101994.14
2022-10-19T17:51:38.977Z,101997.65
2022-10-19T17:54:08.856Z,101999.81
2022-10-19T17:56:37.110Z,101997.29
2022-10-19T17:59:08.000Z,101998.15
2022-10-19T18:01:36.472Z,101995.58
2022-10-19T18:04:04.874Z,101998.27
2022-10-19T18:06:33.739Z,102001.82
2022-10-19T18:09:02.413Z,102008.02
2022-10-19T18:11:31.481Z,102006.08
2022-10-19T18:14:00.598Z,102006.89
2022-10-19T18:16:29.811Z,102007.20
2022-10-19T18:18:58.515Z,102004.29
2022-10-19T18:21:28.302Z,102004.58
2022-10-19T18:23:56.786Z,102008.70
2022-10-19T18:26:25.605Z,102005.38
2022-10-19T18:28:54.359Z,102010.27
2022-10-19T18:31:24.126Z,102014.30
2022-10-19T18:34:02.568Z,102017.20
2022-10-19T18:36:30.978Z,102012.11
2022-10-19T18:39:03.238Z,102011.00
2022-10-19T18:41:30.940Z,102010.34
2022-10-19T18:44:02.065Z,102011.77
2022-10-19T18:46:33.199Z,102015.91
2022-10-19T18:49:01.062Z,102015.25
2022-10-19T18:51:29.322Z,102017.86
2022-10-19T18:53:57.237Z,102018.47
2022-10-19T18:56:25.305Z,102023.11
2022-10-19T18:58:53.106Z,102028.09
2022-10-19T19:01:26.657Z,102027.40
2022-10-19T19:03:56.473Z,102031.36
2022-10-19T19:06:26.081Z,102027.59
2022-10-19T19:08:54.566Z,102033.28
2022-10-19T19:11:23.638Z,102033.05
2022-10-19T19:13:52.585Z,102038.17
2022-10-19T19:16:21.239Z,102042.70
2022-10-19T19:18:49.186Z,102041.23
2022-10-19T19:21:24.545Z,102048.41
2022-10-19T19:23:53.204Z,102057.23
2022-10-19T19:26:21.934Z,102056.56
2022-10-19T19:28:51.728Z,102058.02
2022-10-19T19:31:20.213Z,102056.75
2022-10-19T19:33:48.295Z,102057.96
2022-10-19T19:36:17.198Z,102060.17
2022-10-19T19:38:44.989Z,102057.63
2022-10-19T19:41:14.101Z,102054.21
2022-10-19T19:43:42.719Z,102059.20
2022-10-19T19:46:16.687Z,102059.70
2022-10-19T19:48:46.066Z,102063.40
2022-10-19T19:51:15.196Z,102066.23
2022-10-19T19:53:43.380Z,102065.58
2022-10-19T19:56:12.171Z,102064.46
2022-10-19T19:58:41.100Z,102068.00
2022-10-19T20:01:16.121Z,102066.70
2022-10-19T20:03:44.190Z,102071.98
2022-10-19T20:06:12.210Z,102070.94
2022-10-19T20:08:39.989Z,102072.88
2022-10-19T20:11:09.658Z,102075.08
2022-10-19T20:13:37.865Z,102074.05
2022-10-19T20:16:12.894Z,102070.25
2022-10-19T20:18:41.606Z,102068.23
2022-10-19T20:21:10.147Z,102072.14
2022-10-19T20:23:38.726Z,102072.08
2022-10-19T20:26:06.617Z,102069.66
2022-10-19T20:28:34.595Z,102069.36
2022-10-19T20:31:03.858Z,102070.98
2022-10-19T20:33:32.507Z,102071.72
2022-10-19T20:36:07.046Z,102075.84
2022-10-19T20:38:35.848Z,102073.49
2022-10-19T20:41:07.063Z,102073.21
2022-10-19T20:43:37.103Z,102073.10
2022-10-19T20:46:06.385Z,102072.33
2022-10-19T20:48:34.144Z,102073.96
2022-10-19T20:51:16.077Z,102076.38
2022-10-19T20:53:47.891Z,102079.08
2022-10-19T20:56:17.764Z,102084.04
2022-10-19T20:58:45.531Z,102086.30
2022-10-19T21:01:15.057Z,102078.36
2022-10-19T21:03:52.532Z,102087.51
2022-10-19T21:06:21.011Z,102087.84
2022-10-19T21:08:48.713Z,102091.56
2022-10-19T21:11:17.569Z,102089.73
2022-10-19T21:13:45.790Z,102092.36
2022-10-19T21:16:15.103Z,102089.88
2022-10-19T21:18:43.813Z,102088.20
2022-10-19T21:21:16.667Z,102090.42
2022-10-19T21:23:45.299Z,102094.74
2022-10-19T21:26:13.436Z,102099.09
2022-10-19T21:28:45.542Z,102101.02
2022-10-19T21:31:13.842Z,102102.75
2022-10-19T21:33:41.534Z,102101.90
2022-10-19T21:36:09.841Z,102099.30
2022-10-19T21:38:37.712Z,102099.05
2022-10-19T21:41:06.876Z,102100.40
2022-10-19T21:43:34.740Z,102097.76
2022-10-19T21:46:03.640Z,102101.63
2022-10-19T21:48:31.508Z,102093.22
2022-10-19T21:50:59.210Z,102090.67
2022-10-19T21:53:26.854Z,102093.30
2022-10-19T21:55:54.539Z,102095.58
2022-10-19T21:58:22.414Z,102090.94
2022-10-19T22:00:52.519Z,102096.54
2022-10-19T22:03:20.418Z,102102.20
2022-10-19T22:05:51.722Z,102104.30
2022-10-19T22:08:19.752Z,102103.14
2022-10-19T22:10:47.370Z,102099.69
2022-10-19T22:13:15.029Z,102101.46
2022-10-19T22:15:42.647Z,102102.42
2022-10-19T22:18:10.369Z,102105.29
2022-10-19T22:20:39.561Z,102108.48
2022-10-19T22:23:07.685Z,102113.32
2022-10-19T22:25:35.752Z,102114.58
2022-10-19T22:28:03.712Z,102118.77
2022-10-19T22:30:31.434Z,102117.17
2022-10-19T22:32:59.185Z,102118.34
2022-10-19T22:35:27.265Z,102123.41
2022-10-19T22:37:54.925Z,102122.56
2022-10-19T22:40:22.531Z,102117.48
2022-10-19T22:42:50.153Z,102118.73
2022-10-19T22:45:17.786Z,102116.95
2022-10-19T22:47:45.395Z,102118.67
2022-10-19T22:50:13.116Z,102120.24
2022-10-19T22:52:40.754Z,102122.51
2022-10-19T22:55:08.473Z,102126.22
2022-10-19T22:57:36.080Z,102129.04
2022-10-19T23:00:04.172Z,102131.20
2022-10-19T23:02:31.825Z,102133.35
2022-10-19T23:04:59.445Z,102134.84
2022-10-19T23:07:27.074Z,102135.35
2022-10-19T23:09:54.714Z,102130.36
2022-10-19T23:12:22.381Z,102132.34
2022-10-19T23:14:49.975Z,102132.52
2022-10-19T23:17:17.598Z,102138.02
2022-10-19T23:19:46.308Z,102134.34
2022-10-19T23:22:13.937Z,102134.25
2022-10-19T23:24:41.637Z,102131.16
2022-10-19T23:27:09.781Z,102131.17
2022-10-19T23:29:37.469Z,102131.55
2022-10-19T23:32:05.272Z,102133.95
2022-10-19T23:34:32.872Z,102136.86
2022-10-19T23:37:00.585Z,102139.14
2022-10-19T23:39:28.229Z,102139.63
2022-10-19T23:41:55.833Z,102139.29
2022-10-19T23:44:23.533Z,102142.94
2022-10-19T23:46:51.125Z,102139.80
2022-10-19T23:49:18.822Z,102138.73
2022-10-19T23:51:46.437Z,102147.18
2022-10-19T23:54:14.288Z,102146.46
2022-10-19T23:56:42.006Z,102149.39
2022-10-19T23:59:09.931Z,102143.70
